sensor_id;sensor_type;location;lat;lon;timestamp;temperature;humidity
10051;DHT22;5065;46.942;7.432;2023-11-22T00:02:18;9.60;99.90
10051;DHT22;5065;46.942;7.432;2023-11-22T00:04:45;9.60;99.90
10051;DHT22;5065;46.942;7.432;2023-11-22T00:07:12;9.60;99.90
10051;DHT22;5065;46.942;7.432;2023-11-22T00:09:39;9.50;99.90
10051;DHT22;5065;46.942;7.432;2023-11-22T00:12:07;9.60;99.90
10051;DHT22;5065;46.942;7.432;2023-11-22T00:14:35;9.60;99.90
10051;DHT22;5065;46.942;7.432;2023-11-22T00:17:03;9.60;99.90
10051;DHT22;5065;46.942;7.432;2023-11-22T00:19:30;9.60;99.90
10051;DHT22;5065;46.942;7.432;2023-11-22T00:21:58;9.70;99.90
10051;DHT22;5065;46.942;7.432;2023-11-22T00:24:25;9.70;99.90
10051;DHT22;5065;46.942;7.432;2023-11-22T00:26:51;9.70;99.90
10051;DHT22;5065;46.942;7.432;2023-11-22T00:29:18;9.70;99.90
10051;DHT22;5065;46.942;7.432;2023-11-22T00:31:45;9.70;99.90
10051;DHT22;5065;46.942;7.432;2023-11-22T00:34:13;9.70;99.90
10051;DHT22;5065;46.942;7.432;2023-11-22T00:36:40;9.70;99.90
10051;DHT22;5065;46.942;7.432;2023-11-22T00:39:07;9.50;99.90
10051;DHT22;5065;46.942;7.432;2023-11-22T00:41:35;9.40;99.90
10051;DHT22;5065;46.942;7.432;2023-11-22T00:44:02;9.40;99.90
10051;DHT22;5065;46.942;7.432;2023-11-22T00:46:29;9.40;99.90
10051;DHT22;5065;46.942;7.432;2023-11-22T00:48:56;9.40;99.90
10051;DHT22;5065;46.942;7.432;2023-11-22T00:51:24;9.40;99.90
10051;DHT22;5065;46.942;7.432;2023-11-22T00:53:52;9.50;99.90
10051;DHT22;5065;46.942;7.432;2023-11-22T00:56:20;9.50;99.90
10051;DHT22;5065;46.942;7.432;2023-11-22T00:58:47;9.50;99.90
10051;DHT22;5065;46.942;7.432;2023-11-22T01:01:15;9.50;99.90
10051;DHT22;5065;46.942;7.432;2023-11-22T01:03:42;9.50;99.90
10051;DHT22;5065;46.942;7.432;2023-11-22T01:06:09;9.60;99.90
10051;DHT22;5065;46.942;7.432;2023-11-22T01:08:39;9.60;99.90
10051;DHT22;5065;46.942;7.432;2023-11-22T01:11:06;9.50;99.90
10051;DHT22;5065;46.942;7.432;2023-11-22T01:13:33;9.60;99.90
10051;DHT22;5065;46.942;7.432;2023-11-22T01:16:05;9.60;99.90
10051;DHT22;5065;46.942;7.432;2023-11-22T01:18:32;9.50;99.90
10051;DHT22;5065;46.942;7.432;2023-11-22T01:21:00;9.40;99.90
10051;DHT22;5065;46.942;7.432;2023-11-22T01:23:27;9.50;99.90
10051;DHT22;5065;46.942;7.432;2023-11-22T01:25:55;9.60;99.90
10051;DHT22;5065;46.942;7.432;2023-11-22T01:28:22;9.50;99.90
10051;DHT22;5065;46.942;7.432;2023-11-22T01:30:49;9.60;99.90
10051;DHT22;5065;46.942;7.432;2023-11-22T01:33:16;9.50;99.90
10051;DHT22;5065;46.942;7.432;2023-11-22T01:35:43;9.50;99.90
10051;DHT22;5065;46.942;7.432;2023-11-22T01:38:10;9.50;99.90
10051;DHT22;5065;46.942;7.432;2023-11-22T01:40:43;9.50;99.90
10051;DHT22;5065;46.942;7.432;2023-11-22T01:43:13;9.60;99.90
10051;DHT22;5065;46.942;7.432;2023-11-22T01:45:42;9.60;99.90
10051;DHT22;5065;46.942;7.432;2023-11-22T01:48:10;9.50;99.90
10051;DHT22;5065;46.942;7.432;2023-11-22T01:50:40;9.50;99.90
10051;DHT22;5065;46.942;7.432;2023-11-22T01:53:08;9.50;99.90
10051;DHT22;5065;46.942;7.432;2023-11-22T01:55:39;9.40;99.90
10051;DHT22;5065;46.942;7.432;2023-11-22T01:58:06;9.60;99.90
10051;DHT22;5065;46.942;7.432;2023-11-22T02:00:36;9.50;99.90
10051;DHT22;5065;46.942;7.432;2023-11-22T02:03:09;9.50;99.90
10051;DHT22;5065;46.942;7.432;2023-11-22T02:05:36;9.40;99.90
10051;DHT22;5065;46.942;7.432;2023-11-22T02:08:07;9.50;99.90
10051;DHT22;5065;46.942;7.432;2023-11-22T02:10:35;9.50;99.90
10051;DHT22;5065;46.942;7.432;2023-11-22T02:13:02;9.50;99.90
10051;DHT22;5065;46.942;7.432;2023-11-22T02:15:30;9.60;99.90
10051;DHT22;5065;46.942;7.432;2023-11-22T02:17:58;9.60;99.90
10051;DHT22;5065;46.942;7.432;2023-11-22T02:20:25;9.60;99.90
10051;DHT22;5065;46.942;7.432;2023-11-22T02:22:52;9.60;99.90
10051;DHT22;5065;46.942;7.432;2023-11-22T02:25:20;9.60;99.90
10051;DHT22;5065;46.942;7.432;2023-11-22T02:27:47;9.60;99.90
10051;DHT22;5065;46.942;7.432;2023-11-22T02:30:14;9.60;99.90
10051;DHT22;5065;46.942;7.432;2023-11-22T02:32:41;9.50;99.90
10051;DHT22;5065;46.942;7.432;2023-11-22T02:35:09;9.50;99.90
10051;DHT22;5065;46.942;7.432;2023-11-22T02:37:38;9.50;99.90
10051;DHT22;5065;46.942;7.432;2023-11-22T02:40:06;9.50;99.90
10051;DHT22;5065;46.942;7.432;2023-11-22T02:42:41;9.40;99.90
10051;DHT22;5065;46.942;7.432;2023-11-22T02:45:08;9.40;99.90
10051;DHT22;5065;46.942;7.432;2023-11-22T02:47:35;9.40;99.90
10051;DHT22;5065;46.942;7.432;2023-11-22T02:50:02;9.40;99.90
10051;DHT22;5065;46.942;7.432;2023-11-22T02:52:30;9.50;99.90
10051;DHT22;5065;46.942;7.432;2023-11-22T02:54:57;9.50;99.90
10051;DHT22;5065;46.942;7.432;2023-11-22T02:57:24;9.50;99.90
10051;DHT22;5065;46.942;7.432;2023-11-22T02:59:53;9.30;99.90
10051;DHT22;5065;46.942;7.432;2023-11-22T03:02:20;9.20;99.90
10051;DHT22;5065;46.942;7.432;2023-11-22T03:04:46;9.20;99.90
10051;DHT22;5065;46.942;7.432;2023-11-22T03:07:16;9.20;99.90
10051;DHT22;5065;46.942;7.432;2023-11-22T03:09:43;9.20;99.90
10051;DHT22;5065;46.942;7.432;2023-11-22T03:12:11;9.20;99.90
10051;DHT22;5065;46.942;7.432;2023-11-22T03:14:38;9.20;99.90
10051;DHT22;5065;46.942;7.432;2023-11-22T03:17:09;9.20;99.90
10051;DHT22;5065;46.942;7.432;2023-11-22T03:19:36;9.30;99.90
10051;DHT22;5065;46.942;7.432;2023-11-22T03:22:03;9.20;99.90
10051;DHT22;5065;46.942;7.432;2023-11-22T03:24:30;9.20;99.90
10051;DHT22;5065;46.942;7.432;2023-11-22T03:26:59;9.20;99.90
10051;DHT22;5065;46.942;7.432;2023-11-22T03:29:26;9.20;99.90
10051;DHT22;5065;46.942;7.432;2023-11-22T03:31:54;9.20;99.90
10051;DHT22;5065;46.942;7.432;2023-11-22T03:34:23;9.30;99.90
10051;DHT22;5065;46.942;7.432;2023-11-22T03:36:49;9.30;99.90
10051;DHT22;5065;46.942;7.432;2023-11-22T03:39:17;9.40;99.90
10051;DHT22;5065;46.942;7.432;2023-11-22T03:41:45;9.40;99.90
10051;DHT22;5065;46.942;7.432;2023-11-22T03:44:12;9.40;99.90
10051;DHT22;5065;46.942;7.432;2023-11-22T03:46:39;9.40;99.90
10051;DHT22;5065;46.942;7.432;2023-11-22T03:49:06;9.40;99.90
10051;DHT22;5065;46.942;7.432;2023-11-22T03:51:35;9.40;99.90
10051;DHT22;5065;46.942;7.432;2023-11-22T03:54:02;9.40;99.90
10051;DHT22;5065;46.942;7.432;2023-11-22T03:56:29;9.40;99.90
10051;DHT22;5065;46.942;7.432;2023-11-22T03:58:56;9.30;99.90
10051;DHT22;5065;46.942;7.432;2023-11-22T04:01:23;9.30;99.90
10051;DHT22;5065;46.942;7.432;2023-11-22T04:03:50;9.30;99.90
10051;DHT22;5065;46.942;7.432;2023-11-22T04:06:17;9.30;99.90
10051;DHT22;5065;46.942;7.432;2023-11-22T04:08:46;9.30;99.90
10051;DHT22;5065;46.942;7.432;2023-11-22T04:11:13;9.40;99.90
10051;DHT22;5065;46.942;7.432;2023-11-22T04:13:40;9.40;99.90
10051;DHT22;5065;46.942;7.432;2023-11-22T04:16:07;9.40;99.90
10051;DHT22;5065;46.942;7.432;2023-11-22T04:18:34;9.40;99.90
10051;DHT22;5065;46.942;7.432;2023-11-22T04:21:02;9.40;99.90
10051;DHT22;5065;46.942;7.432;2023-11-22T04:23:30;9.30;99.90
10051;DHT22;5065;46.942;7.432;2023-11-22T04:25:59;9.30;99.90
10051;DHT22;5065;46.942;7.432;2023-11-22T04:28:26;9.30;99.90
10051;DHT22;5065;46.942;7.432;2023-11-22T04:30:55;9.40;99.90
10051;DHT22;5065;46.942;7.432;2023-11-22T04:33:22;9.40;99.90
10051;DHT22;5065;46.942;7.432;2023-11-22T04:35:49;9.40;99.90
10051;DHT22;5065;46.942;7.432;2023-11-22T04:38:16;9.40;99.90
10051;DHT22;5065;46.942;7.432;2023-11-22T04:40:44;9.30;99.90
10051;DHT22;5065;46.942;7.432;2023-11-22T04:43:12;9.40;99.90
10051;DHT22;5065;46.942;7.432;2023-11-22T04:45:39;9.40;99.90
10051;DHT22;5065;46.942;7.432;2023-11-22T04:48:06;9.50;99.90
10051;DHT22;5065;46.942;7.432;2023-11-22T04:50:33;9.40;99.90
10051;DHT22;5065;46.942;7.432;2023-11-22T04:53:00;9.40;99.90
10051;DHT22;5065;46.942;7.432;2023-11-22T04:55:28;9.40;99.90
10051;DHT22;5065;46.942;7.432;2023-11-22T04:57:55;9.50;99.90
10051;DHT22;5065;46.942;7.432;2023-11-22T05:00:23;9.50;99.90
10051;DHT22;5065;46.942;7.432;2023-11-22T05:02:50;9.50;99.90
10051;DHT22;5065;46.942;7.432;2023-11-22T05:05:17;9.50;99.90
10051;DHT22;5065;46.942;7.432;2023-11-22T05:07:44;9.50;99.90
10051;DHT22;5065;46.942;7.432;2023-11-22T05:10:11;9.40;99.90
10051;DHT22;5065;46.942;7.432;2023-11-22T05:12:38;9.30;99.90
10051;DHT22;5065;46.942;7.432;2023-11-22T05:15:05;9.40;99.90
10051;DHT22;5065;46.942;7.432;2023-11-22T05:17:33;9.30;99.90
10051;DHT22;5065;46.942;7.432;2023-11-22T05:20:03;9.30;99.90
10051;DHT22;5065;46.942;7.432;2023-11-22T05:22:30;9.20;99.90
10051;DHT22;5065;46.942;7.432;2023-11-22T05:25:00;9.20;99.90
10051;DHT22;5065;46.942;7.432;2023-11-22T05:27:27;9.10;99.90
10051;DHT22;5065;46.942;7.432;2023-11-22T05:29:54;9.10;99.90
10051;DHT22;5065;46.942;7.432;2023-11-22T05:32:21;9.00;99.90
10051;DHT22;5065;46.942;7.432;2023-11-22T05:34:49;9.10;99.90
10051;DHT22;5065;46.942;7.432;2023-11-22T05:37:16;9.10;99.90
10051;DHT22;5065;46.942;7.432;2023-11-22T05:39:43;9.10;99.90
10051;DHT22;5065;46.942;7.432;2023-11-22T05:42:10;9.10;99.90
10051;DHT22;5065;46.942;7.432;2023-11-22T05:44:37;9.20;99.90
10051;DHT22;5065;46.942;7.432;2023-11-22T05:47:04;9.00;99.90
10051;DHT22;5065;46.942;7.432;2023-11-22T05:49:33;8.90;99.90
10051;DHT22;5065;46.942;7.432;2023-11-22T05:52:01;8.90;99.90
10051;DHT22;5065;46.942;7.432;2023-11-22T05:54:28;9.00;99.90
10051;DHT22;5065;46.942;7.432;2023-11-22T05:56:55;8.90;99.90
10051;DHT22;5065;46.942;7.432;2023-11-22T05:59:22;8.90;99.90
10051;DHT22;5065;46.942;7.432;2023-11-22T06:01:50;8.90;99.90
10051;DHT22;5065;46.942;7.432;2023-11-22T06:04:17;8.90;99.90
10051;DHT22;5065;46.942;7.432;2023-11-22T06:06:44;8.70;99.90
10051;DHT22;5065;46.942;7.432;2023-11-22T06:09:13;8.90;99.90
10051;DHT22;5065;46.942;7.432;2023-11-22T06:11:41;8.90;99.90
10051;DHT22;5065;46.942;7.432;2023-11-22T06:14:08;9.00;99.90
10051;DHT22;5065;46.942;7.432;2023-11-22T06:16:35;9.00;99.90
10051;DHT22;5065;46.942;7.432;2023-11-22T06:19:02;9.00;99.90
10051;DHT22;5065;46.942;7.432;2023-11-22T06:21:30;9.10;99.90
10051;DHT22;5065;46.942;7.432;2023-11-22T06:23:57;9.10;99.90
10051;DHT22;5065;46.942;7.432;2023-11-22T06:26:26;9.10;99.90
10051;DHT22;5065;46.942;7.432;2023-11-22T06:28:53;9.10;99.90
10051;DHT22;5065;46.942;7.432;2023-11-22T06:31:22;9.10;99.90
10051;DHT22;5065;46.942;7.432;2023-11-22T06:33:49;9.00;99.90
10051;DHT22;5065;46.942;7.432;2023-11-22T06:36:18;9.20;99.90
10051;DHT22;5065;46.942;7.432;2023-11-22T06:38:45;9.10;99.90
10051;DHT22;5065;46.942;7.432;2023-11-22T06:41:12;9.10;99.90
10051;DHT22;5065;46.942;7.432;2023-11-22T06:43:41;9.10;99.90
10051;DHT22;5065;46.942;7.432;2023-11-22T06:46:08;9.00;99.90
10051;DHT22;5065;46.942;7.432;2023-11-22T06:48:36;9.20;99.90
10051;DHT22;5065;46.942;7.432;2023-11-22T06:51:04;9.20;99.90
10051;DHT22;5065;46.942;7.432;2023-11-22T06:53:32;9.20;99.90
10051;DHT22;5065;46.942;7.432;2023-11-22T06:55:59;9.20;99.90
10051;DHT22;5065;46.942;7.432;2023-11-22T06:58:27;9.30;99.90
10051;DHT22;5065;46.942;7.432;2023-11-22T07:00:56;9.20;99.90
10051;DHT22;5065;46.942;7.432;2023-11-22T07:03:23;9.20;99.90
10051;DHT22;5065;46.942;7.432;2023-11-22T07:05:51;9.30;99.90
10051;DHT22;5065;46.942;7.432;2023-11-22T07:08:18;9.10;99.90
10051;DHT22;5065;46.942;7.432;2023-11-22T07:10:45;9.10;99.90
10051;DHT22;5065;46.942;7.432;2023-11-22T07:13:13;9.20;99.90
10051;DHT22;5065;46.942;7.432;2023-11-22T07:15:41;9.20;99.90
10051;DHT22;5065;46.942;7.432;2023-11-22T07:18:09;9.30;99.90
10051;DHT22;5065;46.942;7.432;2023-11-22T07:20:40;9.20;99.90
10051;DHT22;5065;46.942;7.432;2023-11-22T07:23:08;9.20;99.90
10051;DHT22;5065;46.942;7.432;2023-11-22T07:25:39;9.10;99.90
10051;DHT22;5065;46.942;7.432;2023-11-22T07:28:07;9.10;99.90
10051;DHT22;5065;46.942;7.432;2023-11-22T07:30:34;9.10;99.90
10051;DHT22;5065;46.942;7.432;2023-11-22T07:33:04;9.00;99.90
10051;DHT22;5065;46.942;7.432;2023-11-22T07:35:35;9.00;99.90
10051;DHT22;5065;46.942;7.432;2023-11-22T07:38:02;8.90;99.90
10051;DHT22;5065;46.942;7.432;2023-11-22T07:40:30;9.10;99.90
10051;DHT22;5065;46.942;7.432;2023-11-22T07:43:00;9.10;99.90
10051;DHT22;5065;46.942;7.432;2023-11-22T07:45:28;9.10;99.90
10051;DHT22;5065;46.942;7.432;2023-11-22T07:47:56;9.30;99.90
10051;DHT22;5065;46.942;7.432;2023-11-22T07:50:25;9.10;99.90
10051;DHT22;5065;46.942;7.432;2023-11-22T07:52:53;9.10;99.90
10051;DHT22;5065;46.942;7.432;2023-11-22T07:55:20;9.10;99.90
10051;DHT22;5065;46.942;7.432;2023-11-22T07:57:48;9.00;99.90
10051;DHT22;5065;46.942;7.432;2023-11-22T08:00:18;9.00;99.90
10051;DHT22;5065;46.942;7.432;2023-11-22T08:02:46;9.00;99.90
10051;DHT22;5065;46.942;7.432;2023-11-22T08:05:13;8.90;99.90
10051;DHT22;5065;46.942;7.432;2023-11-22T08:07:41;8.80;99.90
10051;DHT22;5065;46.942;7.432;2023-11-22T08:10:11;8.80;99.90
10051;DHT22;5065;46.942;7.432;2023-11-22T08:12:45;9.10;99.90
10051;DHT22;5065;46.942;7.432;2023-11-22T08:15:13;9.10;99.90
10051;DHT22;5065;46.942;7.432;2023-11-22T08:17:41;9.10;99.90
10051;DHT22;5065;46.942;7.432;2023-11-22T08:20:10;9.40;99.90
10051;DHT22;5065;46.942;7.432;2023-11-22T08:22:39;9.30;99.90
10051;DHT22;5065;46.942;7.432;2023-11-22T08:25:08;9.20;99.90
10051;DHT22;5065;46.942;7.432;2023-11-22T08:27:40;9.20;99.90
10051;DHT22;5065;46.942;7.432;2023-11-22T08:30:08;9.10;99.90
10051;DHT22;5065;46.942;7.432;2023-11-22T08:32:40;9.10;99.90
10051;DHT22;5065;46.942;7.432;2023-11-22T08:35:08;9.20;99.90
10051;DHT22;5065;46.942;7.432;2023-11-22T08:37:39;9.20;99.90
10051;DHT22;5065;46.942;7.432;2023-11-22T08:40:08;9.20;99.90
10051;DHT22;5065;46.942;7.432;2023-11-22T08:42:38;9.00;99.90
10051;DHT22;5065;46.942;7.432;2023-11-22T08:45:07;9.00;99.90
10051;DHT22;5065;46.942;7.432;2023-11-22T08:47:35;9.00;99.90
10051;DHT22;5065;46.942;7.432;2023-11-22T08:50:06;9.00;99.90
10051;DHT22;5065;46.942;7.432;2023-11-22T08:52:33;9.00;99.90
10051;DHT22;5065;46.942;7.432;2023-11-22T08:55:03;9.20;99.90
10051;DHT22;5065;46.942;7.432;2023-11-22T08:57:30;9.10;99.90
10051;DHT22;5065;46.942;7.432;2023-11-22T08:59:58;9.10;99.90
10051;DHT22;5065;46.942;7.432;2023-11-22T09:02:34;9.10;99.90
10051;DHT22;5065;46.942;7.432;2023-11-22T09:05:01;9.10;99.90
10051;DHT22;5065;46.942;7.432;2023-11-22T09:07:32;9.20;99.90
10051;DHT22;5065;46.942;7.432;2023-11-22T09:10:01;9.20;99.90
10051;DHT22;5065;46.942;7.432;2023-11-22T09:12:35;9.20;99.90
10051;DHT22;5065;46.942;7.432;2023-11-22T09:15:05;9.30;99.90
10051;DHT22;5065;46.942;7.432;2023-11-22T09:17:35;9.10;99.90
10051;DHT22;5065;46.942;7.432;2023-11-22T09:20:03;9.20;99.90
10051;DHT22;5065;46.942;7.432;2023-11-22T09:22:32;9.20;99.90
10051;DHT22;5065;46.942;7.432;2023-11-22T09:24:59;9.50;99.90
10051;DHT22;5065;46.942;7.432;2023-11-22T09:27:27;9.40;99.90
10051;DHT22;5065;46.942;7.432;2023-11-22T09:29:54;9.50;99.90
10051;DHT22;5065;46.942;7.432;2023-11-22T09:32:22;9.50;99.90
10051;DHT22;5065;46.942;7.432;2023-11-22T09:34:50;9.50;99.90
10051;DHT22;5065;46.942;7.432;2023-11-22T09:37:23;9.60;99.90
10051;DHT22;5065;46.942;7.432;2023-11-22T09:39:51;9.70;99.90
10051;DHT22;5065;46.942;7.432;2023-11-22T09:42:18;9.60;99.90
10051;DHT22;5065;46.942;7.432;2023-11-22T09:44:46;9.60;99.90
10051;DHT22;5065;46.942;7.432;2023-11-22T09:47:14;9.70;99.90
10051;DHT22;5065;46.942;7.432;2023-11-22T09:49:47;9.60;99.90
10051;DHT22;5065;46.942;7.432;2023-11-22T09:52:20;9.60;99.90
10051;DHT22;5065;46.942;7.432;2023-11-22T09:54:50;9.50;99.90
10051;DHT22;5065;46.942;7.432;2023-11-22T09:57:20;9.30;99.90
10051;DHT22;5065;46.942;7.432;2023-11-22T09:59:49;9.40;99.90
10051;DHT22;5065;46.942;7.432;2023-11-22T10:02:18;9.40;99.90
10051;DHT22;5065;46.942;7.432;2023-11-22T10:04:48;9.30;99.90
10051;DHT22;5065;46.942;7.432;2023-11-22T10:07:17;9.10;99.90
10051;DHT22;5065;46.942;7.432;2023-11-22T10:09:44;9.00;99.90
10051;DHT22;5065;46.942;7.432;2023-11-22T10:12:12;9.10;99.90
10051;DHT22;5065;46.942;7.432;2023-11-22T10:14:40;8.90;99.90
10051;DHT22;5065;46.942;7.432;2023-11-22T10:17:08;9.00;99.90
10051;DHT22;5065;46.942;7.432;2023-11-22T10:19:35;8.90;99.90
10051;DHT22;5065;46.942;7.432;2023-11-22T10:22:05;9.00;99.90
10051;DHT22;5065;46.942;7.432;2023-11-22T10:24:36;9.00;99.90
10051;DHT22;5065;46.942;7.432;2023-11-22T10:27:03;9.10;99.90
10051;DHT22;5065;46.942;7.432;2023-11-22T10:29:31;9.10;99.90
10051;DHT22;5065;46.942;7.432;2023-11-22T10:31:59;9.10;99.90
10051;DHT22;5065;46.942;7.432;2023-11-22T10:34:26;9.10;99.90
10051;DHT22;5065;46.942;7.432;2023-11-22T10:36:55;9.10;99.90
10051;DHT22;5065;46.942;7.432;2023-11-22T10:39:24;9.20;99.90
10051;DHT22;5065;46.942;7.432;2023-11-22T10:41:53;9.20;99.90
10051;DHT22;5065;46.942;7.432;2023-11-22T10:44:21;9.20;99.90
10051;DHT22;5065;46.942;7.432;2023-11-22T10:46:49;9.00;99.90
10051;DHT22;5065;46.942;7.432;2023-11-22T10:49:18;9.20;99.90
10051;DHT22;5065;46.942;7.432;2023-11-22T10:51:51;9.20;99.90
10051;DHT22;5065;46.942;7.432;2023-11-22T10:54:20;9.10;99.90
10051;DHT22;5065;46.942;7.432;2023-11-22T10:56:54;9.20;99.90
10051;DHT22;5065;46.942;7.432;2023-11-22T10:59:23;9.30;99.90
10051;DHT22;5065;46.942;7.432;2023-11-22T11:01:56;9.20;99.90
10051;DHT22;5065;46.942;7.432;2023-11-22T11:04:34;9.30;99.90
10051;DHT22;5065;46.942;7.432;2023-11-22T11:07:03;9.20;99.90
10051;DHT22;5065;46.942;7.432;2023-11-22T11:09:32;9.30;99.90
10051;DHT22;5065;46.942;7.432;2023-11-22T11:12:02;9.30;99.90
10051;DHT22;5065;46.942;7.432;2023-11-22T11:14:30;9.20;99.90
10051;DHT22;5065;46.942;7.432;2023-11-22T11:16:58;9.40;99.90
10051;DHT22;5065;46.942;7.432;2023-11-22T11:19:25;9.40;99.90
10051;DHT22;5065;46.942;7.432;2023-11-22T11:21:54;9.30;99.90
10051;DHT22;5065;46.942;7.432;2023-11-22T11:24:23;9.30;99.90
10051;DHT22;5065;46.942;7.432;2023-11-22T11:26:50;9.30;99.90
10051;DHT22;5065;46.942;7.432;2023-11-22T11:29:33;9.30;99.90
10051;DHT22;5065;46.942;7.432;2023-11-22T11:32:03;9.20;99.90
10051;DHT22;5065;46.942;7.432;2023-11-22T11:34:30;9.20;99.90
10051;DHT22;5065;46.942;7.432;2023-11-22T11:36:59;9.20;99.90
10051;DHT22;5065;46.942;7.432;2023-11-22T11:39:27;9.30;99.90
10051;DHT22;5065;46.942;7.432;2023-11-22T11:42:09;9.10;99.90
10051;DHT22;5065;46.942;7.432;2023-11-22T11:44:39;9.20;99.90
10051;DHT22;5065;46.942;7.432;2023-11-22T11:47:17;9.20;99.90
10051;DHT22;5065;46.942;7.432;2023-11-22T11:49:44;9.30;99.90
10051;DHT22;5065;46.942;7.432;2023-11-22T11:52:11;9.30;99.90
10051;DHT22;5065;46.942;7.432;2023-11-22T11:54:39;9.30;99.90
10051;DHT22;5065;46.942;7.432;2023-11-22T11:57:06;9.20;99.90
10051;DHT22;5065;46.942;7.432;2023-11-22T11:59:34;9.40;99.90
10051;DHT22;5065;46.942;7.432;2023-11-22T12:02:03;9.40;99.90
10051;DHT22;5065;46.942;7.432;2023-11-22T12:04:32;9.40;99.90
10051;DHT22;5065;46.942;7.432;2023-11-22T12:06:59;9.20;99.90
10051;DHT22;5065;46.942;7.432;2023-11-22T12:09:27;9.30;99.90
10051;DHT22;5065;46.942;7.432;2023-11-22T12:11:55;9.20;99.90
10051;DHT22;5065;46.942;7.432;2023-11-22T12:14:23;9.20;99.90
10051;DHT22;5065;46.942;7.432;2023-11-22T12:16:51;9.10;99.90
10051;DHT22;5065;46.942;7.432;2023-11-22T12:19:25;9.10;99.90
10051;DHT22;5065;46.942;7.432;2023-11-22T12:21:53;9.10;99.90
10051;DHT22;5065;46.942;7.432;2023-11-22T12:24:20;9.20;99.90
10051;DHT22;5065;46.942;7.432;2023-11-22T12:26:48;9.30;99.90
10051;DHT22;5065;46.942;7.432;2023-11-22T12:29:17;9.30;99.90
10051;DHT22;5065;46.942;7.432;2023-11-22T12:31:46;9.30;99.90
10051;DHT22;5065;46.942;7.432;2023-11-22T12:34:16;9.30;99.90
10051;DHT22;5065;46.942;7.432;2023-11-22T12:36:45;9.30;99.90
10051;DHT22;5065;46.942;7.432;2023-11-22T12:39:14;9.30;99.90
10051;DHT22;5065;46.942;7.432;2023-11-22T12:41:44;8.90;99.90
10051;DHT22;5065;46.942;7.432;2023-11-22T12:44:12;8.90;99.90
10051;DHT22;5065;46.942;7.432;2023-11-22T12:46:47;8.80;99.90
10051;DHT22;5065;46.942;7.432;2023-11-22T12:49:16;8.70;99.90
10051;DHT22;5065;46.942;7.432;2023-11-22T12:51:49;8.90;99.90
10051;DHT22;5065;46.942;7.432;2023-11-22T12:54:17;9.00;99.90
10051;DHT22;5065;46.942;7.432;2023-11-22T12:56:48;8.80;99.90
10051;DHT22;5065;46.942;7.432;2023-11-22T12:59:16;8.60;99.90
10051;DHT22;5065;46.942;7.432;2023-11-22T13:01:44;8.80;99.90
10051;DHT22;5065;46.942;7.432;2023-11-22T13:04:11;8.70;99.90
10051;DHT22;5065;46.942;7.432;2023-11-22T13:06:41;8.70;99.90
10051;DHT22;5065;46.942;7.432;2023-11-22T13:09:10;8.80;99.90
10051;DHT22;5065;46.942;7.432;2023-11-22T13:11:41;8.80;99.90
10051;DHT22;5065;46.942;7.432;2023-11-22T13:14:09;8.90;99.90
10051;DHT22;5065;46.942;7.432;2023-11-22T13:16:39;9.00;99.90
10051;DHT22;5065;46.942;7.432;2023-11-22T13:19:07;8.80;99.90
10051;DHT22;5065;46.942;7.432;2023-11-22T13:21:35;8.80;99.90
10051;DHT22;5065;46.942;7.432;2023-11-22T13:24:02;8.70;99.90
10051;DHT22;5065;46.942;7.432;2023-11-22T13:26:31;8.60;99.90
10051;DHT22;5065;46.942;7.432;2023-11-22T13:29:00;8.60;99.90
10051;DHT22;5065;46.942;7.432;2023-11-22T13:31:27;8.60;99.90
10051;DHT22;5065;46.942;7.432;2023-11-22T13:33:54;8.50;99.90
10051;DHT22;5065;46.942;7.432;2023-11-22T13:36:21;8.60;99.90
10051;DHT22;5065;46.942;7.432;2023-11-22T13:38:49;8.80;99.90
10051;DHT22;5065;46.942;7.432;2023-11-22T13:41:17;8.50;99.90
10051;DHT22;5065;46.942;7.432;2023-11-22T13:43:47;8.10;99.90
10051;DHT22;5065;46.942;7.432;2023-11-22T13:46:15;8.00;99.90
10051;DHT22;5065;46.942;7.432;2023-11-22T13:48:42;8.20;99.90
10051;DHT22;5065;46.942;7.432;2023-11-22T13:51:10;8.10;99.90
10051;DHT22;5065;46.942;7.432;2023-11-22T13:53:37;8.00;99.90
10051;DHT22;5065;46.942;7.432;2023-11-22T13:56:09;8.10;99.90
10051;DHT22;5065;46.942;7.432;2023-11-22T13:58:36;8.10;99.90
10051;DHT22;5065;46.942;7.432;2023-11-22T14:01:05;8.10;99.90
10051;DHT22;5065;46.942;7.432;2023-11-22T14:03:37;8.20;99.90
10051;DHT22;5065;46.942;7.432;2023-11-22T14:06:05;8.20;99.90
10051;DHT22;5065;46.942;7.432;2023-11-22T14:08:32;8.40;99.90
10051;DHT22;5065;46.942;7.432;2023-11-22T14:10:59;8.40;99.90
10051;DHT22;5065;46.942;7.432;2023-11-22T14:13:27;8.20;99.90
10051;DHT22;5065;46.942;7.432;2023-11-22T14:15:54;8.30;99.90
10051;DHT22;5065;46.942;7.432;2023-11-22T14:18:26;8.30;99.90
10051;DHT22;5065;46.942;7.432;2023-11-22T14:20:53;8.30;99.90
10051;DHT22;5065;46.942;7.432;2023-11-22T14:23:22;8.30;99.90
10051;DHT22;5065;46.942;7.432;2023-11-22T14:25:49;8.10;99.90
10051;DHT22;5065;46.942;7.432;2023-11-22T14:28:16;8.10;99.90
10051;DHT22;5065;46.942;7.432;2023-11-22T14:30:44;7.90;99.90
10051;DHT22;5065;46.942;7.432;2023-11-22T14:33:12;8.10;99.90
10051;DHT22;5065;46.942;7.432;2023-11-22T14:35:41;8.00;99.90
10051;DHT22;5065;46.942;7.432;2023-11-22T14:38:09;8.00;99.90
10051;DHT22;5065;46.942;7.432;2023-11-22T14:40:40;8.00;99.90
10051;DHT22;5065;46.942;7.432;2023-11-22T14:43:08;7.90;99.90
10051;DHT22;5065;46.942;7.432;2023-11-22T14:45:35;8.00;99.90
10051;DHT22;5065;46.942;7.432;2023-11-22T14:48:03;8.10;99.90
10051;DHT22;5065;46.942;7.432;2023-11-22T14:50:30;7.80;99.90
10051;DHT22;5065;46.942;7.432;2023-11-22T14:52:59;7.80;99.90
10051;DHT22;5065;46.942;7.432;2023-11-22T14:55:26;7.80;99.90
10051;DHT22;5065;46.942;7.432;2023-11-22T14:57:53;7.80;99.90
10051;DHT22;5065;46.942;7.432;2023-11-22T15:00:23;7.80;99.90
10051;DHT22;5065;46.942;7.432;2023-11-22T15:02:50;7.80;99.90
10051;DHT22;5065;46.942;7.432;2023-11-22T15:05:21;7.50;99.90
10051;DHT22;5065;46.942;7.432;2023-11-22T15:07:49;7.40;99.90
10051;DHT22;5065;46.942;7.432;2023-11-22T15:10:22;7.50;99.90
10051;DHT22;5065;46.942;7.432;2023-11-22T15:12:50;7.50;99.90
10051;DHT22;5065;46.942;7.432;2023-11-22T15:15:17;7.40;99.90
10051;DHT22;5065;46.942;7.432;2023-11-22T15:17:45;7.80;99.90
10051;DHT22;5065;46.942;7.432;2023-11-22T15:20:12;7.60;99.90
10051;DHT22;5065;46.942;7.432;2023-11-22T15:22:41;7.70;99.90
10051;DHT22;5065;46.942;7.432;2023-11-22T15:25:09;7.50;99.90
10051;DHT22;5065;46.942;7.432;2023-11-22T15:27:37;7.60;99.90
10051;DHT22;5065;46.942;7.432;2023-11-22T15:30:06;7.70;99.90
10051;DHT22;5065;46.942;7.432;2023-11-22T15:32:37;7.70;99.90
10051;DHT22;5065;46.942;7.432;2023-11-22T15:35:04;7.60;99.90
10051;DHT22;5065;46.942;7.432;2023-11-22T15:37:32;7.40;99.90
10051;DHT22;5065;46.942;7.432;2023-11-22T15:40:01;7.40;99.90
10051;DHT22;5065;46.942;7.432;2023-11-22T15:42:29;7.60;99.90
10051;DHT22;5065;46.942;7.432;2023-11-22T15:44:58;7.40;99.90
10051;DHT22;5065;46.942;7.432;2023-11-22T15:47:25;7.30;99.90
10051;DHT22;5065;46.942;7.432;2023-11-22T15:49:52;7.30;99.90
10051;DHT22;5065;46.942;7.432;2023-11-22T15:52:20;7.30;99.90
10051;DHT22;5065;46.942;7.432;2023-11-22T15:54:47;7.10;99.90
10051;DHT22;5065;46.942;7.432;2023-11-22T15:57:14;7.20;99.90
10051;DHT22;5065;46.942;7.432;2023-11-22T15:59:42;7.20;99.90
10051;DHT22;5065;46.942;7.432;2023-11-22T16:02:10;7.10;99.90
10051;DHT22;5065;46.942;7.432;2023-11-22T16:04:38;7.20;99.90
10051;DHT22;5065;46.942;7.432;2023-11-22T16:07:05;7.20;99.90
10051;DHT22;5065;46.942;7.432;2023-11-22T16:09:32;7.10;99.90